createdAt,value
2022-12-25T00:00:20.236Z,8.81
2022-12-25T00:01:14.305Z,8.80
2022-12-25T00:02:13.307Z,8.79
2022-12-25T00:03:13.418Z,8.80
2022-12-25T00:04:13.292Z,8.77
2022-12-25T00:05:13.260Z,8.76
2022-12-25T00:06:13.262Z,8.74
2022-12-25T00:07:13.257Z,8.79
2022-12-25T00:08:13.243Z,8.77
2022-12-25T00:09:13.217Z,8.80
2022-12-25T00:10:13.206Z,8.83
2022-12-25T00:11:13.217Z,8.84
2022-12-25T00:12:13.288Z,8.83
2022-12-25T00:13:13.217Z,8.84
2022-12-25T00:14:13.199Z,8.84
2022-12-25T00:15:13.149Z,8.83
2022-12-25T00:16:13.227Z,8.83
2022-12-25T00:17:13.132Z,8.81
2022-12-25T00:18:13.112Z,8.81
2022-12-25T00:19:13.120Z,8.83
2022-12-25T00:20:13.129Z,8.83
2022-12-25T00:21:13.097Z,8.84
2022-12-25T00:22:13.187Z,8.83
2022-12-25T00:23:13.067Z,8.83
2022-12-25T00:24:13.063Z,8.81
2022-12-25T00:25:13.061Z,8.80
2022-12-25T00:26:13.073Z,8.80
2022-12-25T00:27:13.020Z,8.79
2022-12-25T00:28:13.044Z,8.79
2022-12-25T00:29:13.041Z,8.79
2022-12-25T00:30:13.303Z,8.77
2022-12-25T00:31:13.035Z,8.79
2022-12-25T00:32:13.055Z,8.77
2022-12-25T00:33:12.961Z,8.76
2022-12-25T00:34:12.999Z,8.76
2022-12-25T00:35:12.961Z,8.74
2022-12-25T00:36:12.972Z,8.74
2022-12-25T00:37:12.932Z,8.73
2022-12-25T00:38:12.914Z,8.73
2022-12-25T00:39:12.923Z,8.70
2022-12-25T00:40:12.948Z,8.70
2022-12-25T00:41:12.945Z,8.71
2022-12-25T00:42:12.985Z,8.68
2022-12-25T00:43:12.852Z,8.70
2022-12-25T00:44:12.998Z,8.71
2022-12-25T00:45:14.252Z,8.70
2022-12-25T00:46:13.141Z,8.70
2022-12-25T00:47:12.897Z,8.68
2022-12-25T00:48:12.792Z,8.66
2022-12-25T00:49:12.812Z,8.68
2022-12-25T00:50:12.806Z,8.70
2022-12-25T00:51:12.767Z,8.66
2022-12-25T00:52:12.768Z,8.68
2022-12-25T00:53:12.737Z,8.70
2022-12-25T00:54:12.773Z,8.68
2022-12-25T00:55:12.727Z,8.68
2022-12-25T00:56:12.723Z,8.68
2022-12-25T00:57:12.729Z,8.70
2022-12-25T00:58:12.755Z,8.68
2022-12-25T00:59:12.689Z,8.68
2022-12-25T01:00:12.656Z,8.65
2022-12-25T01:01:12.700Z,8.66
2022-12-25T01:02:12.865Z,8.65
2022-12-25T01:03:12.690Z,8.68
2022-12-25T01:04:12.712Z,8.65
2022-12-25T01:05:12.639Z,8.63
2022-12-25T01:06:12.669Z,8.62
2022-12-25T01:07:12.607Z,8.62
2022-12-25T01:08:12.646Z,8.63
2022-12-25T01:09:12.569Z,8.63
2022-12-25T01:10:12.563Z,8.63
2022-12-25T01:11:12.548Z,8.62
2022-12-25T01:12:12.676Z,8.65
2022-12-25T01:13:12.544Z,8.65
2022-12-25T01:14:12.620Z,8.68
2022-12-25T01:15:12.512Z,8.71
2022-12-25T01:16:12.552Z,8.77
2022-12-25T01:17:12.627Z,8.80
2022-12-25T01:18:13.104Z,8.84
2022-12-25T01:19:12.840Z,8.84
2022-12-25T01:20:12.554Z,8.89
2022-12-25T01:21:12.426Z,8.87
2022-12-25T01:22:12.490Z,8.91
2022-12-25T01:23:12.409Z,8.99
2022-12-25T01:24:12.448Z,9.04
2022-12-25T01:25:12.412Z,9.04
2022-12-25T01:26:12.475Z,9.02
2022-12-25T01:27:12.424Z,9.05
2022-12-25T01:28:12.439Z,9.05
2022-12-25T01:29:12.365Z,9.05
2022-12-25T01:30:12.348Z,9.10
2022-12-25T01:31:12.378Z,9.10
2022-12-25T01:32:12.344Z,9.15
2022-12-25T01:33:12.299Z,9.15
2022-12-25T01:34:12.373Z,9.13
2022-12-25T01:35:12.360Z,9.13
2022-12-25T01:36:12.284Z,9.11
2022-12-25T01:37:12.270Z,9.13
2022-12-25T01:38:12.263Z,9.13
2022-12-25T01:39:12.272Z,9.14
2022-12-25T01:40:12.289Z,9.15
2022-12-25T01:41:12.228Z,9.17
2022-12-25T01:42:12.202Z,9.20
2022-12-25T01:43:17.049Z,9.26
2022-12-25T01:44:13.768Z,9.29
2022-12-25T01:45:12.172Z,9.29
2022-12-25T01:46:12.191Z,9.32
2022-12-25T01:47:12.161Z,9.35
2022-12-25T01:48:12.195Z,9.36
2022-12-25T01:49:12.135Z,9.36
2022-12-25T01:50:12.162Z,9.42
2022-12-25T01:51:12.111Z,9.40
2022-12-25T01:52:12.092Z,9.40
2022-12-25T01:53:12.106Z,9.39
2022-12-25T01:54:12.161Z,9.43
2022-12-25T01:55:12.102Z,9.50
2022-12-25T01:56:12.063Z,9.51
2022-12-25T01:57:12.045Z,9.54
2022-12-25T01:58:12.044Z,9.54
2022-12-25T01:59:12.038Z,9.56
2022-12-25T02:00:12.309Z,9.58
2022-12-25T02:01:12.058Z,9.61
2022-12-25T02:02:12.223Z,9.61
2022-12-25T02:03:12.065Z,9.61
2022-12-25T02:04:11.981Z,9.64
2022-12-25T02:05:11.996Z,9.66
2022-12-25T02:06:11.965Z,9.69
2022-12-25T02:07:11.937Z,9.72
2022-12-25T02:08:12.110Z,9.72
2022-12-25T02:09:11.905Z,9.72
2022-12-25T02:10:11.944Z,9.74
2022-12-25T02:11:11.918Z,9.76
2022-12-25T02:12:11.900Z,9.78
2022-12-25T02:13:11.879Z,9.79
2022-12-25T02:14:11.955Z,9.78
2022-12-25T02:15:11.869Z,9.76
2022-12-25T02:16:11.943Z,9.78
2022-12-25T02:17:11.857Z,9.79
2022-12-25T02:18:11.818Z,9.83
2022-12-25T02:19:11.802Z,9.84
2022-12-25T02:20:11.822Z,9.86
2022-12-25T02:21:11.793Z,9.87
2022-12-25T02:22:11.838Z,9.89
2022-12-25T02:23:11.790Z,9.90
2022-12-25T02:24:11.855Z,9.91
2022-12-25T02:25:11.750Z,9.93
2022-12-25T02:26:11.749Z,9.94
2022-12-25T02:27:11.709Z,9.93
2022-12-25T02:28:11.728Z,9.94
2022-12-25T02:29:11.718Z,9.94
2022-12-25T02:30:11.803Z,9.96
2022-12-25T02:31:11.673Z,9.94
2022-12-25T02:32:11.699Z,9.94
2022-12-25T02:33:11.650Z,9.94
2022-12-25T02:34:11.671Z,9.93
2022-12-25T02:35:11.651Z,9.94
2022-12-25T02:36:11.635Z,9.91
2022-12-25T02:37:11.618Z,9.91
2022-12-25T02:38:11.629Z,9.90
2022-12-25T02:39:11.592Z,9.89
2022-12-25T02:40:11.613Z,9.90
2022-12-25T02:41:11.583Z,9.87
2022-12-25T02:42:11.587Z,9.87
2022-12-25T02:43:11.554Z,9.87
2022-12-25T02:44:11.693Z,9.87
2022-12-25T02:45:11.540Z,9.87
2022-12-25T02:46:11.604Z,9.87
2022-12-25T02:47:11.515Z,9.86
2022-12-25T02:48:11.516Z,9.86
2022-12-25T02:49:11.494Z,9.84
2022-12-25T02:50:11.844Z,9.86
2022-12-25T02:51:11.466Z,9.87
2022-12-25T02:52:11.475Z,9.86
2022-12-25T02:53:11.448Z,9.86
2022-12-25T02:54:11.453Z,9.83
2022-12-25T02:55:11.435Z,9.83
2022-12-25T02:56:11.446Z,9.79
2022-12-25T02:57:11.407Z,9.83
2022-12-25T02:58:11.427Z,9.84
2022-12-25T02:59:11.403Z,9.83
2022-12-25T03:00:11.455Z,9.83
2022-12-25T03:01:11.376Z,9.81
2022-12-25T03:02:11.442Z,9.81
2022-12-25T03:03:11.425Z,9.79
2022-12-25T03:04:11.378Z,9.81
2022-12-25T03:05:11.359Z,9.84
2022-12-25T03:06:11.418Z,9.83
2022-12-25T03:07:11.328Z,9.84
2022-12-25T03:08:11.414Z,9.83
2022-12-25T03:09:11.567Z,9.86
2022-12-25T03:10:11.313Z,9.86
2022-12-25T03:11:11.303Z,9.84
2022-12-25T03:12:11.587Z,9.87
2022-12-25T03:13:11.240Z,9.87
2022-12-25T03:14:11.349Z,9.86
2022-12-25T03:15:11.241Z,9.86
2022-12-25T03:16:11.252Z,9.87
2022-12-25T03:17:11.262Z,9.87
2022-12-25T03:18:11.176Z,9.87
2022-12-25T03:19:11.174Z,9.87
2022-12-25T03:20:11.185Z,9.87
2022-12-25T03:21:11.171Z,9.86
2022-12-25T03:22:11.190Z,9.87
2022-12-25T03:23:11.151Z,9.89
2022-12-25T03:24:11.145Z,9.89
2022-12-25T03:25:11.111Z,9.89
2022-12-25T03:26:11.112Z,9.89
2022-12-25T03:27:11.084Z,9.89
2022-12-25T03:28:11.088Z,9.89
2022-12-25T03:29:11.074Z,9.91
2022-12-25T03:30:11.046Z,9.91
2022-12-25T03:31:11.136Z,9.94
2022-12-25T03:32:11.082Z,9.97
2022-12-25T03:33:36.769Z,9.97
2022-12-25T03:34:12.043Z,9.97
2022-12-25T03:35:11.015Z,9.96
2022-12-25T03:36:11.137Z,9.96
2022-12-25T03:37:10.992Z,9.97
2022-12-25T03:38:11.029Z,9.97
2022-12-25T03:39:10.954Z,10.01
2022-12-25T03:40:10.978Z,9.99
2022-12-25T03:41:10.962Z,9.96
2022-12-25T03:42:11.006Z,9.93
2022-12-25T03:43:10.915Z,9.89
2022-12-25T03:44:10.937Z,9.84
2022-12-25T03:45:10.900Z,9.81
2022-12-25T03:46:11.013Z,9.78
2022-12-25T03:47:10.878Z,9.74
2022-12-25T03:48:10.907Z,9.71
2022-12-25T03:49:10.849Z,9.68
2022-12-25T03:50:10.927Z,9.65
2022-12-25T03:51:10.845Z,9.61
2022-12-25T03:52:10.902Z,9.61
2022-12-25T03:53:10.808Z,9.61
2022-12-25T03:54:10.834Z,9.61
2022-12-25T03:55:10.813Z,9.61
2022-12-25T03:56:10.923Z,9.64
2022-12-25T03:57:10.767Z,9.64
2022-12-25T03:58:10.775Z,9.65
2022-12-25T03:59:10.746Z,9.66
2022-12-25T04:00:10.801Z,9.69
2022-12-25T04:01:10.766Z,9.71
2022-12-25T04:02:11.067Z,9.72
2022-12-25T04:03:10.765Z,9.74
2022-12-25T04:04:10.720Z,9.76
2022-12-25T04:05:10.679Z,9.76
2022-12-25T04:06:10.690Z,9.79
2022-12-25T04:07:10.651Z,9.83
2022-12-25T04:08:10.819Z,9.86
2022-12-25T04:09:10.640Z,9.86
2022-12-25T04:10:10.738Z,9.90
2022-12-25T04:11:10.630Z,9.90
2022-12-25T04:12:10.657Z,9.91
2022-12-25T04:13:10.590Z,9.91
2022-12-25T04:14:10.681Z,9.91
2022-12-25T04:15:10.579Z,9.96
2022-12-25T04:16:10.679Z,9.94
2022-12-25T04:17:10.554Z,9.96
2022-12-25T04:18:10.689Z,9.99
2022-12-25T04:19:10.541Z,9.99
2022-12-25T04:20:10.613Z,10.01
2022-12-25T04:21:10.521Z,9.97
2022-12-25T04:22:10.533Z,9.96
2022-12-25T04:23:10.501Z,9.96
2022-12-25T04:24:10.511Z,9.96
2022-12-25T04:25:10.485Z,9.94
2022-12-25T04:26:10.525Z,9.94
2022-12-25T04:27:10.444Z,9.94
2022-12-25T04:28:10.483Z,9.94
2022-12-25T04:29:10.427Z,9.93
2022-12-25T04:30:10.486Z,9.97
2022-12-25T04:31:10.470Z,9.99
2022-12-25T04:32:10.510Z,9.99
2022-12-25T04:33:10.404Z,9.97
2022-12-25T04:34:10.415Z,9.94
2022-12-25T04:35:10.369Z,9.97
2022-12-25T04:36:10.425Z,9.97
2022-12-25T04:37:10.345Z,9.97
2022-12-25T04:38:10.389Z,9.96
2022-12-25T04:39:10.317Z,9.96
2022-12-25T04:40:10.327Z,9.96
2022-12-25T04:41:10.325Z,9.96
2022-12-25T04:42:10.295Z,9.94
2022-12-25T04:43:10.279Z,9.93
2022-12-25T04:44:10.267Z,9.93
2022-12-25T04:45:10.260Z,9.90
2022-12-25T04:46:10.491Z,9.89
2022-12-25T04:47:11.756Z,9.87
2022-12-25T04:48:10.255Z,9.87
2022-12-25T04:49:10.223Z,9.84
2022-12-25T04:50:10.208Z,9.81
2022-12-25T04:51:10.228Z,9.83
2022-12-25T04:52:10.198Z,9.79
2022-12-25T04:53:10.169Z,9.81
2022-12-25T04:54:10.223Z,9.78
2022-12-25T04:55:10.151Z,9.79
2022-12-25T04:56:10.171Z,9.79
2022-12-25T04:57:10.133Z,9.78
2022-12-25T04:58:10.126Z,9.76
2022-12-25T04:59:10.132Z,9.78
2022-12-25T05:00:10.170Z,9.81
2022-12-25T05:01:10.112Z,9.81
2022-12-25T05:02:10.337Z,9.78
2022-12-25T05:03:10.196Z,9.78
2022-12-25T05:04:10.180Z,9.76
2022-12-25T05:05:10.060Z,9.78
2022-12-25T05:06:10.135Z,9.76
2022-12-25T05:07:10.042Z,9.78
2022-12-25T05:08:10.043Z,9.79
2022-12-25T05:09:10.003Z,9.79
2022-12-25T05:10:10.427Z,9.81
2022-12-25T05:11:10.005Z,9.81
2022-12-25T05:12:09.996Z,9.81
2022-12-25T05:13:09.974Z,9.84
2022-12-25T05:14:10.028Z,9.83
2022-12-25T05:15:09.944Z,9.83
2022-12-25T05:16:10.030Z,9.81
2022-12-25T05:17:09.942Z,9.79
2022-12-25T05:18:09.913Z,9.79
2022-12-25T05:19:09.909Z,9.76
2022-12-25T05:20:09.969Z,9.74
2022-12-25T05:21:09.884Z,9.72
2022-12-25T05:22:10.074Z,9.71
2022-12-25T05:23:09.866Z,9.69
2022-12-25T05:24:09.896Z,9.68
2022-12-25T05:25:09.842Z,9.65
2022-12-25T05:26:09.863Z,9.65
2022-12-25T05:27:09.825Z,9.64
2022-12-25T05:28:09.876Z,9.61
2022-12-25T05:29:09.803Z,9.68
2022-12-25T05:30:09.826Z,9.66
2022-12-25T05:31:09.933Z,9.68
2022-12-25T05:32:09.907Z,9.71
2022-12-25T05:33:09.801Z,9.71
2022-12-25T05:34:09.850Z,9.76
2022-12-25T05:35:09.736Z,9.78
2022-12-25T05:36:09.722Z,9.79
2022-12-25T05:37:09.737Z,9.78
2022-12-25T05:38:09.711Z,9.78
2022-12-25T05:39:09.708Z,9.76
2022-12-25T05:40:09.735Z,9.75
2022-12-25T05:41:09.668Z,9.76
2022-12-25T05:42:09.668Z,9.75
2022-12-25T05:43:09.671Z,9.75
2022-12-25T05:44:09.636Z,9.74
2022-12-25T05:45:09.627Z,9.74
2022-12-25T05:46:09.847Z,9.71
2022-12-25T05:47:09.719Z,9.71
2022-12-25T05:48:09.752Z,9.71
2022-12-25T05:49:09.589Z,9.69
2022-12-25T05:50:09.620Z,9.66
2022-12-25T05:51:09.578Z,9.66
2022-12-25T05:52:09.578Z,9.68
2022-12-25T05:53:09.550Z,9.69
2022-12-25T05:54:09.664Z,9.68
2022-12-25T05:55:09.531Z,9.69
2022-12-25T05:56:09.663Z,9.71
2022-12-25T05:57:09.514Z,9.71
2022-12-25T05:58:09.548Z,9.68
2022-12-25T05:59:09.484Z,9.72
2022-12-25T06:00:09.482Z,9.72
2022-12-25T06:01:09.469Z,9.71
2022-12-25T06:02:09.607Z,9.71
2022-12-25T06:03:09.559Z,9.72
2022-12-25T06:04:12.761Z,9.72
2022-12-25T06:05:09.421Z,9.74
2022-12-25T06:06:09.441Z,9.74
2022-12-25T06:07:09.443Z,9.76
2022-12-25T06:08:09.434Z,9.78
2022-12-25T06:09:09.371Z,9.79
2022-12-25T06:10:09.533Z,9.79
2022-12-25T06:11:09.353Z,9.84
2022-12-25T06:12:09.437Z,9.84
2022-12-25T06:13:09.342Z,9.84
2022-12-25T06:14:09.353Z,9.84
2022-12-25T06:15:09.302Z,9.86
2022-12-25T06:16:09.550Z,9.84
2022-12-25T06:17:09.307Z,9.86
2022-12-25T06:18:09.291Z,9.86
2022-12-25T06:19:09.269Z,9.86
2022-12-25T06:20:09.300Z,9.90
2022-12-25T06:21:09.260Z,9.93
2022-12-25T06:22:09.341Z,9.94
2022-12-25T06:23:09.264Z,9.94
2022-12-25T06:24:09.346Z,9.91
2022-12-25T06:25:09.204Z,9.93
2022-12-25T06:26:09.308Z,9.91
2022-12-25T06:27:09.197Z,9.94
2022-12-25T06:28:09.255Z,9.97
2022-12-25T06:29:09.155Z,10.02
2022-12-25T06:30:09.183Z,10.07
2022-12-25T06:31:09.265Z,10.07
2022-12-25T06:32:09.254Z,10.08
2022-12-25T06:33:09.106Z,10.08
2022-12-25T06:34:09.096Z,10.08
2022-12-25T06:35:09.108Z,10.05
2022-12-25T06:36:09.118Z,10.07
2022-12-25T06:37:09.076Z,10.04
2022-12-25T06:38:09.114Z,10.04
2022-12-25T06:39:09.056Z,10.04
2022-12-25T06:40:09.075Z,10.04
2022-12-25T06:41:09.039Z,10.04
2022-12-25T06:42:09.027Z,10.04
2022-12-25T06:43:09.014Z,10.05
2022-12-25T06:44:09.082Z,10.05
2022-12-25T06:45:08.979Z,10.07
2022-12-25T06:46:09.096Z,10.05
2022-12-25T06:47:08.987Z,10.04
2022-12-25T06:48:09.040Z,10.05
2022-12-25T06:49:08.940Z,10.04
2022-12-25T06:50:08.956Z,10.05
2022-12-25T06:51:09.041Z,10.07
2022-12-25T06:52:08.938Z,10.07
2022-12-25T06:53:08.900Z,10.07
2022-12-25T06:54:08.971Z,10.09
2022-12-25T06:55:08.886Z,10.11
2022-12-25T06:56:08.942Z,10.12
2022-12-25T06:57:08.856Z,10.14
2022-12-25T06:58:08.948Z,10.14
2022-12-25T06:59:08.839Z,10.14
2022-12-25T07:00:08.861Z,10.14
2022-12-25T07:01:08.881Z,10.14
2022-12-25T07:02:08.879Z,10.14
2022-12-25T07:03:08.879Z,10.15
2022-12-25T07:04:08.823Z,10.15
2022-12-25T07:05:08.770Z,10.18
2022-12-25T07:06:08.817Z,10.14
2022-12-25T07:07:09.639Z,10.15
2022-12-25T07:08:08.768Z,10.15
2022-12-25T07:09:08.732Z,10.12
2022-12-25T07:10:08.742Z,10.14
2022-12-25T07:11:08.700Z,10.14
2022-12-25T07:12:08.782Z,10.12
2022-12-25T07:13:08.693Z,10.12
2022-12-25T07:14:08.859Z,10.11
2022-12-25T07:15:08.658Z,10.11
2022-12-25T07:16:08.733Z,10.11
2022-12-25T07:17:08.649Z,10.09
2022-12-25T07:18:08.917Z,10.09
2022-12-25T07:19:08.617Z,10.08
2022-12-25T07:20:08.713Z,10.09
2022-12-25T07:21:08.601Z,10.08
2022-12-25T07:22:08.681Z,10.08
2022-12-25T07:23:08.585Z,10.04
2022-12-25T07:24:08.885Z,10.05
2022-12-25T07:25:08.568Z,10.02
2022-12-25T07:26:08.568Z,10.02
2022-12-25T07:27:08.555Z,10.07
2022-12-25T07:28:08.579Z,10.05
2022-12-25T07:29:08.512Z,10.05
2022-12-25T07:30:08.524Z,10.05
2022-12-25T07:31:08.500Z,10.07
2022-12-25T07:32:08.643Z,10.07
2022-12-25T07:33:08.479Z,10.08
2022-12-25T07:34:08.505Z,10.08
2022-12-25T07:35:08.447Z,10.07
2022-12-25T07:36:12.489Z,10.08
2022-12-25T07:37:08.429Z,10.12
2022-12-25T07:38:08.464Z,10.11
2022-12-25T07:39:08.405Z,10.11
2022-12-25T07:40:08.656Z,10.09
2022-12-25T07:41:08.379Z,10.07
2022-12-25T07:42:08.474Z,10.08
2022-12-25T07:43:08.382Z,10.07
2022-12-25T07:44:08.392Z,10.07
2022-12-25T07:45:08.338Z,10.07
2022-12-25T07:46:08.501Z,10.11
2022-12-25T07:47:08.344Z,10.09
2022-12-25T07:48:13.373Z,10.11
2022-12-25T07:49:09.299Z,10.09
2022-12-25T07:50:08.349Z,10.11
2022-12-25T07:51:08.338Z,10.11
2022-12-25T07:52:08.371Z,10.08
2022-12-25T07:53:08.264Z,10.08
2022-12-25T07:54:08.320Z,10.09
2022-12-25T07:55:08.239Z,10.11
2022-12-25T07:56:08.246Z,10.09
2022-12-25T07:57:08.225Z,10.14
2022-12-25T07:58:08.295Z,10.18
2022-12-25T07:59:08.189Z,10.17
2022-12-25T08:00:08.340Z,10.22
2022-12-25T08:01:08.287Z,10.22
2022-12-25T08:02:08.419Z,10.23
2022-12-25T08:03:08.530Z,10.20
2022-12-25T08:04:08.276Z,10.23
2022-12-25T08:05:08.137Z,10.25
2022-12-25T08:06:08.231Z,10.23
2022-12-25T08:07:08.113Z,10.23
2022-12-25T08:08:08.100Z,10.23
2022-12-25T08:09:08.112Z,10.23
2022-12-25T08:10:08.119Z,10.20
2022-12-25T08:11:08.063Z,10.23
2022-12-25T08:12:08.105Z,10.23
2022-12-25T08:13:14.229Z,10.22
2022-12-25T08:14:09.154Z,10.22
2022-12-25T08:15:08.023Z,10.20
2022-12-25T08:16:08.031Z,10.20
2022-12-25T08:17:08.099Z,10.20
2022-12-25T08:18:08.089Z,10.23
2022-12-25T08:19:07.998Z,10.25
2022-12-25T08:20:08.055Z,10.22
2022-12-25T08:21:07.968Z,10.20
2022-12-25T08:22:07.957Z,10.20
2022-12-25T08:23:07.949Z,10.18
2022-12-25T08:24:07.956Z,10.18
2022-12-25T08:25:07.916Z,10.17
2022-12-25T08:26:08.003Z,10.18
2022-12-25T08:27:07.898Z,10.18
2022-12-25T08:28:07.876Z,10.17
2022-12-25T08:29:07.891Z,10.20
2022-12-25T08:30:08.056Z,10.20
2022-12-25T08:31:07.955Z,10.20
2022-12-25T08:32:07.847Z,10.20
2022-12-25T08:33:07.837Z,10.18
2022-12-25T08:34:07.864Z,10.18
2022-12-25T08:35:07.817Z,10.18
2022-12-25T08:36:07.951Z,10.20
2022-12-25T08:37:07.806Z,10.18
2022-12-25T08:38:07.883Z,10.17
2022-12-25T08:39:07.781Z,10.18
2022-12-25T08:40:07.801Z,10.20
2022-12-25T08:41:07.767Z,10.18
2022-12-25T08:42:07.760Z,10.18
2022-12-25T08:43:07.722Z,10.20
2022-12-25T08:44:07.773Z,10.22
2022-12-25T08:45:07.710Z,10.23
2022-12-25T08:46:07.797Z,10.23
2022-12-25T08:47:07.694Z,10.23
2022-12-25T08:48:07.699Z,10.20
2022-12-25T08:49:07.670Z,10.23
2022-12-25T08:50:07.701Z,10.26
2022-12-25T08:51:07.640Z,10.23
2022-12-25T08:52:07.734Z,10.22
2022-12-25T08:53:07.626Z,10.23
2022-12-25T08:54:07.649Z,10.25
2022-12-25T08:55:07.598Z,10.23
2022-12-25T08:56:07.608Z,10.25
2022-12-25T08:57:07.581Z,10.26
2022-12-25T08:58:07.574Z,10.27
2022-12-25T08:59:07.572Z,10.27
2022-12-25T09:00:07.961Z,10.27
2022-12-25T09:01:07.587Z,10.27
2022-12-25T09:02:07.711Z,10.29
2022-12-25T09:03:07.598Z,10.27
2022-12-25T09:04:07.598Z,10.26
2022-12-25T09:05:07.487Z,10.26
2022-12-25T09:06:07.493Z,10.23
2022-12-25T09:07:07.463Z,10.23
2022-12-25T09:08:07.540Z,10.23
2022-12-25T09:09:07.491Z,10.25
2022-12-25T09:10:07.491Z,10.25
2022-12-25T09:11:07.434Z,10.22
2022-12-25T09:12:07.483Z,10.22
2022-12-25T09:13:07.417Z,10.23
2022-12-25T09:14:07.507Z,10.22
2022-12-25T09:15:07.406Z,10.22
2022-12-25T09:16:07.553Z,10.22
2022-12-25T09:17:07.363Z,10.20
2022-12-25T09:18:07.436Z,10.22
2022-12-25T09:19:07.355Z,10.20
2022-12-25T09:20:07.381Z,10.20
2022-12-25T09:21:07.342Z,10.22
2022-12-25T09:22:07.419Z,10.23
2022-12-25T09:23:13.230Z,10.23
2022-12-25T09:24:08.459Z,10.22
2022-12-25T09:25:07.287Z,10.22
2022-12-25T09:26:07.321Z,10.22
2022-12-25T09:27:07.258Z,10.22
2022-12-25T09:28:07.300Z,10.22
2022-12-25T09:29:07.267Z,10.22
2022-12-25T09:30:07.218Z,10.23
2022-12-25T09:31:07.242Z,10.23
2022-12-25T09:32:07.255Z,10.25
2022-12-25T09:33:07.210Z,10.25
2022-12-25T09:34:07.231Z,10.25
2022-12-25T09:35:07.200Z,10.26
2022-12-25T09:36:07.214Z,10.27
2022-12-25T09:37:07.153Z,10.26
2022-12-25T09:38:07.160Z,10.27
2022-12-25T09:39:07.131Z,10.26
2022-12-25T09:40:07.239Z,10.26
2022-12-25T09:41:07.112Z,10.27
2022-12-25T09:42:07.101Z,10.27
2022-12-25T09:43:07.090Z,10.27
2022-12-25T09:44:07.128Z,10.26
2022-12-25T09:45:07.079Z,10.26
2022-12-25T09:46:08.853Z,10.26
2022-12-25T09:47:07.064Z,10.25
2022-12-25T09:48:07.164Z,10.23
2022-12-25T09:49:07.029Z,10.23
2022-12-25T09:50:07.117Z,10.25
2022-12-25T09:51:07.001Z,10.25
2022-12-25T09:52:06.988Z,10.26
2022-12-25T09:53:06.989Z,10.25
2022-12-25T09:54:07.025Z,10.29
2022-12-25T09:55:06.968Z,10.29
2022-12-25T09:56:07.095Z,10.30
2022-12-25T09:57:06.963Z,10.29
2022-12-25T09:58:06.964Z,10.30
2022-12-25T09:59:06.926Z,10.29
2022-12-25T10:00:06.966Z,10.30
2022-12-25T10:01:06.990Z,10.30
2022-12-25T10:02:06.932Z,10.32
2022-12-25T10:03:07.107Z,10.29
2022-12-25T10:04:07.607Z,10.30
2022-12-25T10:05:06.884Z,10.29
2022-12-25T10:06:06.944Z,10.29
2022-12-25T10:07:06.869Z,10.29
2022-12-25T10:08:06.999Z,10.27
2022-12-25T10:09:06.850Z,10.26
2022-12-25T10:10:06.909Z,10.26
2022-12-25T10:11:06.795Z,10.26
2022-12-25T10:12:06.808Z,10.25
2022-12-25T10:13:06.769Z,10.22
2022-12-25T10:14:06.776Z,10.23
2022-12-25T10:15:06.814Z,10.22
2022-12-25T10:16:06.894Z,10.25
2022-12-25T10:17:06.729Z,10.25
2022-12-25T10:18:06.805Z,10.25
2022-12-25T10:19:06.708Z,10.25
2022-12-25T10:20:06.902Z,10.23
2022-12-25T10:21:12.684Z,10.23
2022-12-25T10:22:07.763Z,10.22
2022-12-25T10:23:06.669Z,10.22
2022-12-25T10:24:06.797Z,10.22
2022-12-25T10:25:06.648Z,10.22
2022-12-25T10:26:06.640Z,10.20
2022-12-25T10:27:06.619Z,10.18
2022-12-25T10:28:06.683Z,10.20
2022-12-25T10:29:06.600Z,10.18
2022-12-25T10:30:06.750Z,10.18
2022-12-25T10:31:06.626Z,10.15
2022-12-25T10:32:06.725Z,10.15
2022-12-25T10:33:07.525Z,10.15
2022-12-25T10:34:06.589Z,10.15
2022-12-25T10:35:06.633Z,10.15
2022-12-25T10:36:06.573Z,10.14
2022-12-25T10:37:06.578Z,10.12
2022-12-25T10:38:06.623Z,10.12
2022-12-25T10:39:06.498Z,10.11
2022-12-25T10:40:06.591Z,10.09
2022-12-25T10:41:06.497Z,10.11
2022-12-25T10:42:06.568Z,10.08
2022-12-25T10:43:06.451Z,10.07
2022-12-25T10:44:07.163Z,10.04
2022-12-25T10:45:06.442Z,10.04
2022-12-25T10:46:06.459Z,10.04
2022-12-25T10:47:06.427Z,10.02
2022-12-25T10:48:07.739Z,10.01
2022-12-25T10:49:06.390Z,10.04
2022-12-25T10:50:06.464Z,10.05
2022-12-25T10:51:06.376Z,10.01
2022-12-25T10:52:06.351Z,10.02
2022-12-25T10:53:06.343Z,10.02
2022-12-25T10:54:06.333Z,10.01
2022-12-25T10:55:06.333Z,9.99
2022-12-25T10:56:06.364Z,9.99
2022-12-25T10:57:06.310Z,9.99
2022-12-25T10:58:06.625Z,9.99
2022-12-25T10:59:06.284Z,9.99
2022-12-25T11:00:06.858Z,9.99
2022-12-25T11:01:06.258Z,9.99
2022-12-25T11:02:06.316Z,9.97
2022-12-25T11:03:06.425Z,9.99
2022-12-25T11:04:06.330Z,9.99
2022-12-25T11:05:06.243Z,10.01
2022-12-25T11:06:06.246Z,10.02
2022-12-25T11:07:06.208Z,10.04
2022-12-25T11:08:06.189Z,10.02
2022-12-25T11:09:06.167Z,10.04
2022-12-25T11:10:06.343Z,10.01
2022-12-25T11:11:06.583Z,10.01
2022-12-25T11:12:06.157Z,10.01
2022-12-25T11:13:06.140Z,9.97
2022-12-25T11:14:06.118Z,9.94
2022-12-25T11:15:06.155Z,9.94
2022-12-25T11:16:06.209Z,9.94
2022-12-25T11:17:06.095Z,9.91
2022-12-25T11:18:06.107Z,9.90
2022-12-25T11:19:06.133Z,9.91
2022-12-25T11:20:06.073Z,9.93
2022-12-25T11:21:06.057Z,9.94
2022-12-25T11:22:06.096Z,9.94
2022-12-25T11:23:06.019Z,9.97
2022-12-25T11:24:06.027Z,10.01
2022-12-25T11:25:06.024Z,10.02
2022-12-25T11:26:06.137Z,10.07
2022-12-25T11:27:05.988Z,10.09
2022-12-25T11:28:05.986Z,10.11
2022-12-25T11:29:06.060Z,10.14
2022-12-25T11:30:08.872Z,10.17
2022-12-25T11:31:07.018Z,10.20
2022-12-25T11:32:05.934Z,10.23
2022-12-25T11:33:05.956Z,10.25
2022-12-25T11:34:05.917Z,10.27
2022-12-25T11:35:05.900Z,10.30
2022-12-25T11:36:06.220Z,10.33
2022-12-25T11:37:05.872Z,10.34
2022-12-25T11:38:05.925Z,10.38
2022-12-25T11:39:05.851Z,10.41
2022-12-25T11:40:05.908Z,10.42
2022-12-25T11:41:05.872Z,10.41
2022-12-25T11:42:05.869Z,10.44
2022-12-25T11:43:08.175Z,10.45
2022-12-25T11:44:05.813Z,10.47
2022-12-25T11:45:05.798Z,10.47
2022-12-25T11:46:05.837Z,10.48
2022-12-25T11:47:05.826Z,10.51
2022-12-25T11:48:05.766Z,10.52
2022-12-25T11:49:05.743Z,10.56
2022-12-25T11:50:05.794Z,10.60
2022-12-25T11:51:05.772Z,10.61
2022-12-25T11:52:05.715Z,10.63
2022-12-25T11:53:05.702Z,10.64
2022-12-25T11:54:05.731Z,10.67
2022-12-25T11:55:05.687Z,10.70
2022-12-25T11:56:05.724Z,10.71
2022-12-25T11:57:05.665Z,10.73
2022-12-25T11:58:05.651Z,10.73
2022-12-25T11:59:05.638Z,10.73
2022-12-25T12:00:05.635Z,10.76
2022-12-25T12:01:05.624Z,10.79
2022-12-25T12:02:05.670Z,10.81
2022-12-25T12:03:05.630Z,10.82
2022-12-25T12:04:05.605Z,10.85
2022-12-25T12:05:05.557Z,10.86
2022-12-25T12:06:05.759Z,10.89
2022-12-25T12:07:05.729Z,10.92
2022-12-25T12:08:05.547Z,10.94
2022-12-25T12:09:05.517Z,10.96
2022-12-25T12:10:05.509Z,11.00
2022-12-25T12:11:05.519Z,11.03
2022-12-25T12:12:05.532Z,11.06
2022-12-25T12:13:05.469Z,11.09
2022-12-25T12:14:05.468Z,11.11
2022-12-25T12:15:05.449Z,11.11
2022-12-25T12:16:05.530Z,11.11
2022-12-25T12:17:05.440Z,11.15
2022-12-25T12:18:05.442Z,11.15
2022-12-25T12:19:05.420Z,11.17
2022-12-25T12:20:05.418Z,11.18
2022-12-25T12:21:05.411Z,11.19
2022-12-25T12:22:05.396Z,11.25
2022-12-25T12:23:05.400Z,11.27
2022-12-25T12:24:05.370Z,11.29
2022-12-25T12:25:05.352Z,11.28
2022-12-25T12:26:05.411Z,11.28
2022-12-25T12:27:05.336Z,11.28
2022-12-25T12:28:06.027Z,11.28
2022-12-25T12:29:05.322Z,11.29
2022-12-25T12:30:05.323Z,11.28
2022-12-25T12:31:05.282Z,11.32
2022-12-25T12:32:05.403Z,11.35
2022-12-25T12:33:05.303Z,11.35
2022-12-25T12:34:05.400Z,11.35
2022-12-25T12:35:05.235Z,11.36
2022-12-25T12:36:05.228Z,11.35
2022-12-25T12:37:05.236Z,11.37
2022-12-25T12:38:05.195Z,11.40
2022-12-25T12:39:05.372Z,11.40
2022-12-25T12:40:05.294Z,11.43
2022-12-25T12:41:05.201Z,11.44
2022-12-25T12:42:05.175Z,11.44
2022-12-25T12:43:05.146Z,11.44
2022-12-25T12:44:05.172Z,11.46
2022-12-25T12:45:05.126Z,11.46
2022-12-25T12:46:05.253Z,11.47
2022-12-25T12:47:05.208Z,11.49
2022-12-25T12:48:05.095Z,11.47
2022-12-25T12:49:05.076Z,11.49
2022-12-25T12:50:05.098Z,11.47
2022-12-25T12:51:05.057Z,11.49
2022-12-25T12:52:05.082Z,11.47
2022-12-25T12:53:05.056Z,11.49
2022-12-25T12:54:05.054Z,11.47
2022-12-25T12:55:05.017Z,11.49
2022-12-25T12:56:05.048Z,11.49
2022-12-25T12:57:05.029Z,11.49
2022-12-25T12:58:05.049Z,11.47
2022-12-25T12:59:04.998Z,11.49
2022-12-25T13:00:10.827Z,11.46
2022-12-25T13:01:05.989Z,11.44
2022-12-25T13:02:05.139Z,11.46
2022-12-25T13:03:04.994Z,11.44
2022-12-25T13:04:05.029Z,11.46
2022-12-25T13:05:04.925Z,11.44